Kine — C6WT4 — position and weather

sailwx.info

Track history (hours):
 
Tides and Currents Weather Stations Pressure Air Temp Water Temp Dewpoint Dewpoint Depression Visibility Wind Speed Wind Dir Waves Ship Positions

Kine

Last reported at 2015-Jul-03 08:19 UTC. Time now 2015-Jul-03 17:22 UTC.
Position N 59°06' E 004°42'.

Length 89 m; draft 4.9 m.

Type: Cargo ship. MMSI: 311117000.

Date/timePositionNaut miles runAvg speedWind from/ knotsBaromVisibWave heightAir tempDewpointWater temp
2015-Jul-03 08:19N 59°06' E 004°42'294 9.5
2015-Jul-02 01:19N 54°13' E 004°46'8 9.4
2015-Jul-02 00:27N 54°05' E 004°46'9 9.4
2015-Jul-01 23:33N 53°56' E 004°47'9 9.3
2015-Jul-01 22:33N 53°47' E 004°48'10 9.5
2015-Jul-01 21:29N 53°37' E 004°48'9 9.6
2015-Jul-01 20:33N 53°28' E 004°43'10 9.9
2015-Jul-01 19:33N 53°20' E 004°37'1310.4
2015-Jul-01 18:20N 53°08' E 004°27'1411.0
2015-Jul-01 17:05N 52°56' E 004°17'611.1
2015-Jul-01 16:33N 52°50' E 004°13'1211.6
2015-Jul-01 15:33N 52°40' E 004°04'1111.3
2015-Jul-01 14:33N 52°30' E 003°55'1311.4
2015-Jul-01 13:26N 52°17' E 003°52'1011.0
2015-Jul-01 12:33N 52°08' E 003°54'8 8.2
2015-Jul-01 11:33N 52°01' E 004°00'1110.6
2015-Jul-01 10:33N 51°55' E 004°15'7 7.5
2015-Jul-01 09:33N 51°53' E 004°26'0 0.0
2015-Jul-01 08:32N 51°53' E 004°26'0 0.0
2015-Jul-01 07:32N 51°53' E 004°26'0 0.0
2015-Jul-01 06:32N 51°53' E 004°26'0 0.1
2015-Jul-01 05:33N 51°53' E 004°27'1 1.4
2015-Jul-01 04:33N 51°54' E 004°28'0 0.0
2015-Jul-01 03:33N 51°54' E 004°28'0 0.0
2015-Jul-01 02:33N 51°54' E 004°28'0 0.0
2015-Jul-01 01:33N 51°54' E 004°28'0 0.0
2015-Jul-01 00:33N 51°54' E 004°28'0 0.0
2015-Jun-30 23:33N 51°54' E 004°28'0 0.0
2015-Jun-30 22:33N 51°54' E 004°28'3 2.7
2015-Jun-30 21:33N 51°54' E 004°24'8 7.8
2015-Jun-30 20:33N 51°56' E 004°12'7 7.5
2015-Jun-30 19:33N 51°60' E 004°01'6 6.1
2015-Jun-30 18:33N 52°05' E 003°56'1111.2
2015-Jun-30 17:33N 52°13' E 004°08'1010.1
2015-Jun-30 16:33N 52°21' E 004°20'9 9.3
2015-Jun-30 15:33N 52°28' E 004°30'4 4.4
2015-Jun-30 14:33N 52°28' E 004°37'2 1.9
2015-Jun-30 13:32N 52°28' E 004°40'0 0.0
2015-Jun-30 12:32N 52°28' E 004°40'0 0.0
2015-Jun-30 11:29N 52°28' E 004°40'0 0.0
2015-Jun-30 10:32N 52°28' E 004°40'0 0.0
2015-Jun-30 09:32N 52°28' E 004°40'0 0.0
2015-Jun-30 08:29N 52°28' E 004°40'0 0.0
2015-Jun-30 07:32N 52°28' E 004°40'0 0.0
2015-Jun-30 06:29N 52°28' E 004°40'0 0.0
2015-Jun-30 05:32N 52°28' E 004°40'0 0.0
2015-Jun-30 04:32N 52°28' E 004°40'0 0.0
2015-Jun-30 03:32N 52°28' E 004°40'0 0.0
2015-Jun-30 02:32N 52°28' E 004°40'0 0.0
2015-Jun-30 01:29N 52°28' E 004°40'0 0.0
2015-Jun-30 00:32N 52°28' E 004°40'0 0.0
2015-Jun-29 23:32N 52°28' E 004°40'0 0.0
2015-Jun-29 22:32N 52°28' E 004°40'0 0.0
2015-Jun-29 21:32N 52°28' E 004°40'0 0.0
2015-Jun-29 20:32N 52°28' E 004°40'0 0.0
2015-Jun-29 19:32N 52°28' E 004°40'0 0.0
2015-Jun-29 18:32N 52°28' E 004°40'0 0.0
2015-Jun-29 17:32N 52°28' E 004°40'0 0.0
2015-Jun-29 16:29N 52°28' E 004°40'0 0.0
2015-Jun-29 15:32N 52°28' E 004°40'0 0.0
2015-Jun-29 14:26N 52°28' E 004°40'0 0.0
2015-Jun-29 13:32N 52°28' E 004°40'0 0.0
2015-Jun-29 12:29N 52°28' E 004°40'0 0.0
2015-Jun-29 11:32N 52°28' E 004°40'0 0.0
2015-Jun-29 10:29N 52°28' E 004°40'0 0.0
2015-Jun-29 09:32N 52°28' E 004°40'0 0.0
2015-Jun-29 08:32N 52°28' E 004°40'0 0.0
2015-Jun-29 07:32N 52°28' E 004°40'0 0.0
2015-Jun-29 06:32N 52°28' E 004°40'0 0.0
2015-Jun-29 05:29N 52°28' E 004°40'0 0.0
2015-Jun-29 04:32N 52°28' E 004°40'0 0.0
2015-Jun-29 03:32N 52°28' E 004°40'0 0.0
2015-Jun-29 02:32N 52°28' E 004°40'0 0.0
2015-Jun-29 01:32N 52°28' E 004°40'0 0.0
2015-Jun-29 00:32N 52°28' E 004°40'0 0.0
2015-Jun-28 23:32N 52°28' E 004°40'0 0.0
2015-Jun-28 22:32N 52°28' E 004°40'0 0.0
2015-Jun-28 21:32N 52°28' E 004°40'0 0.0
2015-Jun-28 20:32N 52°28' E 004°40'0 0.0
2015-Jun-28 19:29N 52°28' E 004°40'0 0.0
2015-Jun-28 18:32N 52°28' E 004°40'0 0.0
2015-Jun-28 17:32N 52°28' E 004°40'0 0.0
2015-Jun-28 16:29N 52°28' E 004°40'0 0.0
2015-Jun-28 15:32N 52°28' E 004°40'0 0.0
2015-Jun-28 14:32N 52°28' E 004°40'0 0.0
2015-Jun-28 13:32N 52°28' E 004°40'0 0.0
2015-Jun-28 12:32N 52°28' E 004°40'0 0.0
2015-Jun-28 11:32N 52°28' E 004°40'0 0.0
2015-Jun-28 10:26N 52°28' E 004°40'0 0.0
2015-Jun-28 09:32N 52°28' E 004°40'0 0.0
2015-Jun-28 08:32N 52°28' E 004°40'0 0.0
2015-Jun-28 07:32N 52°28' E 004°40'0 0.0
2015-Jun-28 06:32N 52°28' E 004°40'0 0.0
2015-Jun-28 05:32N 52°28' E 004°40'0 0.0
2015-Jun-28 04:32N 52°28' E 004°40'0 0.0
2015-Jun-28 03:29N 52°28' E 004°40'0 0.0
2015-Jun-28 02:32N 52°28' E 004°40'0 0.0
2015-Jun-28 01:32N 52°28' E 004°40'0 0.0
2015-Jun-28 00:32N 52°28' E 004°40'0 0.0
2015-Jun-27 23:32N 52°28' E 004°40'0 0.0
2015-Jun-27 22:32N 52°28' E 004°40'0 0.0
2015-Jun-27 21:29N 52°28' E 004°40'0 0.0
2015-Jun-27 20:26N 52°28' E 004°40'0 0.0
2015-Jun-27 19:32N 52°28' E 004°40'0 0.0
2015-Jun-27 18:32N 52°28' E 004°40'0 0.0
2015-Jun-27 17:29N 52°28' E 004°40'0 0.0
2015-Jun-27 16:29N 52°28' E 004°40'0 0.0
2015-Jun-27 15:32N 52°28' E 004°40'0 0.5
2015-Jun-27 14:33N 52°28' E 004°39'2 1.8
2015-Jun-27 13:34N 52°28' E 004°37'6 5.8
2015-Jun-27 12:33N 52°28' E 004°27'8 7.7
2015-Jun-27 11:33N 52°27' E 004°15'10 9.6
2015-Jun-27 10:33N 52°25' E 003°59'1410.0
2015-Jun-27 09:11N 52°19' E 003°39'68 8.8
2015-Jun-27 01:27N 51°31' E 002°21'9 9.3
2015-Jun-27 00:26N 51°24' E 002°12'9 9.7
2015-Jun-26 23:33N 51°16' E 002°05'1010.2
2015-Jun-26 22:33N 51°09' E 001°54'1110.7
2015-Jun-26 21:33N 51°02' E 001°41'3311.0
2015-Jun-26 18:30N 50°36' E 001°07'1210.0
2015-Jun-26 17:18N 50°30' E 000°50'810.4
2015-Jun-26 16:33N 50°28' E 000°39'1110.6
2015-Jun-26 15:33N 50°25' E 000°22'1010.5
2015-Jun-26 14:33N 50°23' E 000°07'1210.1
2015-Jun-26 13:21N 50°22' W 000°13'18 9.3
2015-Jun-26 11:27N 50°22' W 000°40'9 7.9
2015-Jun-26 10:18N 50°24' W 000°54'6 7.6
2015-Jun-26 09:33N 50°25' W 001°03'9 7.6
2015-Jun-26 08:24N 50°26' W 001°16'55 9.3
2015-Jun-26 02:31N 50°21' W 002°42'1010.1
2015-Jun-26 01:33N 50°18' W 002°57'10 9.9
2015-Jun-26 00:33N 50°16' W 003°12'10 9.8
2015-Jun-25 23:33N 50°13' W 003°27'132 3.0
2015-Jun-24 04:21N 50°25' W 006°52'9110.2
2015-Jun-23 19:29N 51°07' W 008°59'410.5
2015-Jun-23 19:06N 51°09' W 009°05'  
Track history (hours):
 
Tides and Currents Weather Stations Pressure Air Temp Water Temp Dewpoint Dewpoint Depression Visibility Wind Speed Wind Dir Waves Ship Positions

Kine

Last reported at 2015-Jul-03 08:19 UTC. Time now 2015-Jul-03 17:22 UTC.
Position N 59°06' E 004°42'.

Length 89 m; draft 4.9 m.

Type: Cargo ship. MMSI: 311117000.

Date/timePositionNaut miles runAvg speedWind from/ knotsBaromVisibWave heightAir tempDewpointWater temp
2015-Jul-03 08:19N 59°06' E 004°42'294 9.5
2015-Jul-02 01:19N 54°13' E 004°46'8 9.4
2015-Jul-02 00:27N 54°05' E 004°46'9 9.4
2015-Jul-01 23:33N 53°56' E 004°47'9 9.3
2015-Jul-01 22:33N 53°47' E 004°48'10 9.5
2015-Jul-01 21:29N 53°37' E 004°48'9 9.6
2015-Jul-01 20:33N 53°28' E 004°43'10 9.9
2015-Jul-01 19:33N 53°20' E 004°37'1310.4
2015-Jul-01 18:20N 53°08' E 004°27'1411.0
2015-Jul-01 17:05N 52°56' E 004°17'611.1
2015-Jul-01 16:33N 52°50' E 004°13'1211.6
2015-Jul-01 15:33N 52°40' E 004°04'1111.3
2015-Jul-01 14:33N 52°30' E 003°55'1311.4
2015-Jul-01 13:26N 52°17' E 003°52'1011.0
2015-Jul-01 12:33N 52°08' E 003°54'8 8.2
2015-Jul-01 11:33N 52°01' E 004°00'1110.6
2015-Jul-01 10:33N 51°55' E 004°15'7 7.5
2015-Jul-01 09:33N 51°53' E 004°26'0 0.0
2015-Jul-01 08:32N 51°53' E 004°26'0 0.0
2015-Jul-01 07:32N 51°53' E 004°26'0 0.0
2015-Jul-01 06:32N 51°53' E 004°26'0 0.1
2015-Jul-01 05:33N 51°53' E 004°27'1 1.4
2015-Jul-01 04:33N 51°54' E 004°28'0 0.0
2015-Jul-01 03:33N 51°54' E 004°28'0 0.0
2015-Jul-01 02:33N 51°54' E 004°28'0 0.0
2015-Jul-01 01:33N 51°54' E 004°28'0 0.0
2015-Jul-01 00:33N 51°54' E 004°28'0 0.0
2015-Jun-30 23:33N 51°54' E 004°28'0 0.0
2015-Jun-30 22:33N 51°54' E 004°28'3 2.7
2015-Jun-30 21:33N 51°54' E 004°24'8 7.8
2015-Jun-30 20:33N 51°56' E 004°12'7 7.5
2015-Jun-30 19:33N 51°60' E 004°01'6 6.1
2015-Jun-30 18:33N 52°05' E 003°56'1111.2
2015-Jun-30 17:33N 52°13' E 004°08'1010.1
2015-Jun-30 16:33N 52°21' E 004°20'9 9.3
2015-Jun-30 15:33N 52°28' E 004°30'4 4.4
2015-Jun-30 14:33N 52°28' E 004°37'2 1.9
2015-Jun-30 13:32N 52°28' E 004°40'0 0.0
2015-Jun-30 12:32N 52°28' E 004°40'0 0.0
2015-Jun-30 11:29N 52°28' E 004°40'0 0.0
2015-Jun-30 10:32N 52°28' E 004°40'0 0.0
2015-Jun-30 09:32N 52°28' E 004°40'0 0.0
2015-Jun-30 08:29N 52°28' E 004°40'0 0.0
2015-Jun-30 07:32N 52°28' E 004°40'0 0.0
2015-Jun-30 06:29N 52°28' E 004°40'0 0.0
2015-Jun-30 05:32N 52°28' E 004°40'0 0.0
2015-Jun-30 04:32N 52°28' E 004°40'0 0.0
2015-Jun-30 03:32N 52°28' E 004°40'0 0.0
2015-Jun-30 02:32N 52°28' E 004°40'0 0.0
2015-Jun-30 01:29N 52°28' E 004°40'0 0.0
2015-Jun-30 00:32N 52°28' E 004°40'0 0.0
2015-Jun-29 23:32N 52°28' E 004°40'0 0.0
2015-Jun-29 22:32N 52°28' E 004°40'0 0.0
2015-Jun-29 21:32N 52°28' E 004°40'0 0.0
2015-Jun-29 20:32N 52°28' E 004°40'0 0.0
2015-Jun-29 19:32N 52°28' E 004°40'0 0.0
2015-Jun-29 18:32N 52°28' E 004°40'0 0.0
2015-Jun-29 17:32N 52°28' E 004°40'0 0.0
2015-Jun-29 16:29N 52°28' E 004°40'0 0.0
2015-Jun-29 15:32N 52°28' E 004°40'0 0.0
2015-Jun-29 14:26N 52°28' E 004°40'0 0.0
2015-Jun-29 13:32N 52°28' E 004°40'0 0.0
2015-Jun-29 12:29N 52°28' E 004°40'0 0.0
2015-Jun-29 11:32N 52°28' E 004°40'0 0.0
2015-Jun-29 10:29N 52°28' E 004°40'0 0.0
2015-Jun-29 09:32N 52°28' E 004°40'0 0.0
2015-Jun-29 08:32N 52°28' E 004°40'0 0.0
2015-Jun-29 07:32N 52°28' E 004°40'0 0.0
2015-Jun-29 06:32N 52°28' E 004°40'0 0.0
2015-Jun-29 05:29N 52°28' E 004°40'0 0.0
2015-Jun-29 04:32N 52°28' E 004°40'0 0.0
2015-Jun-29 03:32N 52°28' E 004°40'0 0.0
2015-Jun-29 02:32N 52°28' E 004°40'0 0.0
2015-Jun-29 01:32N 52°28' E 004°40'0 0.0
2015-Jun-29 00:32N 52°28' E 004°40'0 0.0
2015-Jun-28 23:32N 52°28' E 004°40'0 0.0
2015-Jun-28 22:32N 52°28' E 004°40'0 0.0
2015-Jun-28 21:32N 52°28' E 004°40'0 0.0
2015-Jun-28 20:32N 52°28' E 004°40'0 0.0
2015-Jun-28 19:29N 52°28' E 004°40'0 0.0
2015-Jun-28 18:32N 52°28' E 004°40'0 0.0
2015-Jun-28 17:32N 52°28' E 004°40'0 0.0
2015-Jun-28 16:29N 52°28' E 004°40'0 0.0
2015-Jun-28 15:32N 52°28' E 004°40'0 0.0
2015-Jun-28 14:32N 52°28' E 004°40'0 0.0
2015-Jun-28 13:32N 52°28' E 004°40'0 0.0
2015-Jun-28 12:32N 52°28' E 004°40'0 0.0
2015-Jun-28 11:32N 52°28' E 004°40'0 0.0
2015-Jun-28 10:26N 52°28' E 004°40'0 0.0
2015-Jun-28 09:32N 52°28' E 004°40'0 0.0
2015-Jun-28 08:32N 52°28' E 004°40'0 0.0
2015-Jun-28 07:32N 52°28' E 004°40'0 0.0
2015-Jun-28 06:32N 52°28' E 004°40'0 0.0
2015-Jun-28 05:32N 52°28' E 004°40'0 0.0
2015-Jun-28 04:32N 52°28' E 004°40'0 0.0
2015-Jun-28 03:29N 52°28' E 004°40'0 0.0
2015-Jun-28 02:32N 52°28' E 004°40'0 0.0
2015-Jun-28 01:32N 52°28' E 004°40'0 0.0
2015-Jun-28 00:32N 52°28' E 004°40'0 0.0
2015-Jun-27 23:32N 52°28' E 004°40'0 0.0
2015-Jun-27 22:32N 52°28' E 004°40'0 0.0
2015-Jun-27 21:29N 52°28' E 004°40'0 0.0
2015-Jun-27 20:26N 52°28' E 004°40'0 0.0
2015-Jun-27 19:32N 52°28' E 004°40'0 0.0
2015-Jun-27 18:32N 52°28' E 004°40'0 0.0
2015-Jun-27 17:29N 52°28' E 004°40'0 0.0
2015-Jun-27 16:29N 52°28' E 004°40'0 0.0
2015-Jun-27 15:32N 52°28' E 004°40'0 0.5
2015-Jun-27 14:33N 52°28' E 004°39'2 1.8
2015-Jun-27 13:34N 52°28' E 004°37'6 5.8
2015-Jun-27 12:33N 52°28' E 004°27'8 7.7
2015-Jun-27 11:33N 52°27' E 004°15'10 9.6
2015-Jun-27 10:33N 52°25' E 003°59'1410.0
2015-Jun-27 09:11N 52°19' E 003°39'68 8.8
2015-Jun-27 01:27N 51°31' E 002°21'9 9.3
2015-Jun-27 00:26N 51°24' E 002°12'9 9.7
2015-Jun-26 23:33N 51°16' E 002°05'1010.2
2015-Jun-26 22:33N 51°09' E 001°54'1110.7
2015-Jun-26 21:33N 51°02' E 001°41'3311.0
2015-Jun-26 18:30N 50°36' E 001°07'1210.0
2015-Jun-26 17:18N 50°30' E 000°50'810.4
2015-Jun-26 16:33N 50°28' E 000°39'1110.6
2015-Jun-26 15:33N 50°25' E 000°22'1010.5
2015-Jun-26 14:33N 50°23' E 000°07'1210.1
2015-Jun-26 13:21N 50°22' W 000°13'18 9.3
2015-Jun-26 11:27N 50°22' W 000°40'9 7.9
2015-Jun-26 10:18N 50°24' W 000°54'6 7.6
2015-Jun-26 09:33N 50°25' W 001°03'9 7.6
2015-Jun-26 08:24N 50°26' W 001°16'55 9.3
2015-Jun-26 02:31N 50°21' W 002°42'1010.1
2015-Jun-26 01:33N 50°18' W 002°57'10 9.9
2015-Jun-26 00:33N 50°16' W 003°12'10 9.8
2015-Jun-25 23:33N 50°13' W 003°27'132 3.0
2015-Jun-24 04:21N 50°25' W 006°52'9110.2
2015-Jun-23 19:29N 51°07' W 008°59'410.5
2015-Jun-23 19:06N 51°09' W 009°05'  

Dump ship's entire track history